sensor_id;sensor_type;location;lat;lon;timestamp;P1;durP1;ratioP1;P2;durP2;ratioP2
30299;SDS011;17110;52.602;12.998;2023-05-07T00:01:49;22.63;;;20.48;;
30299;SDS011;17110;52.602;12.998;2023-05-07T00:04:15;24.52;;;22.10;;
30299;SDS011;17110;52.602;12.998;2023-05-07T00:06:42;21.10;;;19.13;;
30299;SDS011;17110;52.602;12.998;2023-05-07T00:09:07;21.65;;;19.50;;
30299;SDS011;17110;52.602;12.998;2023-05-07T00:11:33;22.00;;;19.90;;
30299;SDS011;17110;52.602;12.998;2023-05-07T00:13:59;21.65;;;19.63;;
30299;SDS011;17110;52.602;12.998;2023-05-07T00:16:24;22.08;;;20.02;;
30299;SDS011;17110;52.602;12.998;2023-05-07T00:18:50;22.10;;;20.00;;
30299;SDS011;17110;52.602;12.998;2023-05-07T00:21:17;21.95;;;19.95;;
30299;SDS011;17110;52.602;12.998;2023-05-07T00:23:44;23.20;;;21.02;;
30299;SDS011;17110;52.602;12.998;2023-05-07T00:26:10;22.20;;;20.25;;
30299;SDS011;17110;52.602;12.998;2023-05-07T00:28:36;21.92;;;19.83;;
30299;SDS011;17110;52.602;12.998;2023-05-07T00:31:01;21.13;;;18.95;;
30299;SDS011;17110;52.602;12.998;2023-05-07T00:33:27;22.05;;;20.00;;
30299;SDS011;17110;52.602;12.998;2023-05-07T00:35:53;21.55;;;19.42;;
30299;SDS011;17110;52.602;12.998;2023-05-07T00:38:18;21.85;;;19.95;;
30299;SDS011;17110;52.602;12.998;2023-05-07T00:40:45;19.45;;;17.70;;
30299;SDS011;17110;52.602;12.998;2023-05-07T00:43:11;20.80;;;18.95;;
30299;SDS011;17110;52.602;12.998;2023-05-07T00:45:37;21.08;;;19.17;;
30299;SDS011;17110;52.602;12.998;2023-05-07T00:48:02;22.02;;;19.92;;
30299;SDS011;17110;52.602;12.998;2023-05-07T00:50:29;22.10;;;20.08;;
30299;SDS011;17110;52.602;12.998;2023-05-07T00:52:55;20.80;;;18.80;;
30299;SDS011;17110;52.602;12.998;2023-05-07T00:55:22;19.08;;;17.27;;
30299;SDS011;17110;52.602;12.998;2023-05-07T00:57:50;20.10;;;18.38;;
30299;SDS011;17110;52.602;12.998;2023-05-07T01:00:16;20.35;;;18.40;;
30299;SDS011;17110;52.602;12.998;2023-05-07T01:02:42;19.55;;;17.77;;
30299;SDS011;17110;52.602;12.998;2023-05-07T01:05:09;20.40;;;18.42;;
30299;SDS011;17110;52.602;12.998;2023-05-07T01:07:36;19.17;;;17.17;;
30299;SDS011;17110;52.602;12.998;2023-05-07T01:10:03;19.05;;;17.25;;
30299;SDS011;17110;52.602;12.998;2023-05-07T01:12:30;17.73;;;16.13;;
30299;SDS011;17110;52.602;12.998;2023-05-07T01:14:57;17.98;;;16.48;;
30299;SDS011;17110;52.602;12.998;2023-05-07T01:17:23;18.63;;;17.13;;
30299;SDS011;17110;52.602;12.998;2023-05-07T01:19:50;18.45;;;16.70;;
30299;SDS011;17110;52.602;12.998;2023-05-07T01:22:17;16.45;;;14.80;;
30299;SDS011;17110;52.602;12.998;2023-05-07T01:24:53;19.17;;;17.65;;
30299;SDS011;17110;52.602;12.998;2023-05-07T01:27:19;18.15;;;16.65;;
30299;SDS011;17110;52.602;12.998;2023-05-07T01:29:47;18.30;;;16.70;;
30299;SDS011;17110;52.602;12.998;2023-05-07T01:32:14;18.60;;;16.92;;
30299;SDS011;17110;52.602;12.998;2023-05-07T01:34:42;17.92;;;16.45;;
30299;SDS011;17110;52.602;12.998;2023-05-07T01:37:10;20.38;;;18.35;;
30299;SDS011;17110;52.602;12.998;2023-05-07T01:39:37;19.05;;;17.40;;
30299;SDS011;17110;52.602;12.998;2023-05-07T01:42:04;19.48;;;17.67;;
30299;SDS011;17110;52.602;12.998;2023-05-07T01:44:30;20.40;;;18.52;;
30299;SDS011;17110;52.602;12.998;2023-05-07T01:46:56;20.30;;;18.52;;
30299;SDS011;17110;52.602;12.998;2023-05-07T01:49:22;19.77;;;17.88;;
30299;SDS011;17110;52.602;12.998;2023-05-07T01:51:48;18.70;;;17.10;;
30299;SDS011;17110;52.602;12.998;2023-05-07T01:54:14;19.90;;;17.92;;
30299;SDS011;17110;52.602;12.998;2023-05-07T01:56:41;17.77;;;16.25;;
30299;SDS011;17110;52.602;12.998;2023-05-07T01:59:07;17.67;;;16.05;;
30299;SDS011;17110;52.602;12.998;2023-05-07T02:01:32;19.15;;;17.35;;
30299;SDS011;17110;52.602;12.998;2023-05-07T02:03:58;17.52;;;15.82;;
30299;SDS011;17110;52.602;12.998;2023-05-07T02:06:26;17.48;;;15.88;;
30299;SDS011;17110;52.602;12.998;2023-05-07T02:08:56;18.02;;;16.48;;
30299;SDS011;17110;52.602;12.998;2023-05-07T02:11:22;17.27;;;15.77;;
30299;SDS011;17110;52.602;12.998;2023-05-07T02:13:49;16.58;;;15.15;;
30299;SDS011;17110;52.602;12.998;2023-05-07T02:16:15;16.42;;;15.02;;
30299;SDS011;17110;52.602;12.998;2023-05-07T02:18:40;16.65;;;15.25;;
30299;SDS011;17110;52.602;12.998;2023-05-07T02:21:06;17.50;;;15.70;;
30299;SDS011;17110;52.602;12.998;2023-05-07T02:23:32;16.23;;;14.80;;
30299;SDS011;17110;52.602;12.998;2023-05-07T02:25:57;15.73;;;14.32;;
30299;SDS011;17110;52.602;12.998;2023-05-07T02:28:23;15.95;;;14.55;;
30299;SDS011;17110;52.602;12.998;2023-05-07T02:30:55;16.23;;;14.70;;
30299;SDS011;17110;52.602;12.998;2023-05-07T02:33:20;15.57;;;14.20;;
30299;SDS011;17110;52.602;12.998;2023-05-07T02:35:46;15.75;;;14.25;;
30299;SDS011;17110;52.602;12.998;2023-05-07T02:38:14;15.65;;;14.25;;
30299;SDS011;17110;52.602;12.998;2023-05-07T02:40:40;17.08;;;15.63;;
30299;SDS011;17110;52.602;12.998;2023-05-07T02:43:06;16.80;;;15.30;;
30299;SDS011;17110;52.602;12.998;2023-05-07T02:45:31;16.30;;;14.90;;
30299;SDS011;17110;52.602;12.998;2023-05-07T02:47:59;15.68;;;14.25;;
30299;SDS011;17110;52.602;12.998;2023-05-07T02:50:25;16.38;;;14.98;;
30299;SDS011;17110;52.602;12.998;2023-05-07T02:52:51;16.38;;;15.00;;
30299;SDS011;17110;52.602;12.998;2023-05-07T02:55:17;16.80;;;15.40;;
30299;SDS011;17110;52.602;12.998;2023-05-07T02:57:42;16.17;;;14.77;;
30299;SDS011;17110;52.602;12.998;2023-05-07T03:00:12;15.63;;;14.32;;
30299;SDS011;17110;52.602;12.998;2023-05-07T03:02:43;16.35;;;14.88;;
30299;SDS011;17110;52.602;12.998;2023-05-07T03:05:10;16.27;;;14.77;;
30299;SDS011;17110;52.602;12.998;2023-05-07T03:07:36;16.55;;;14.95;;
30299;SDS011;17110;52.602;12.998;2023-05-07T03:10:02;16.75;;;15.23;;
30299;SDS011;17110;52.602;12.998;2023-05-07T03:12:28;15.98;;;14.68;;
30299;SDS011;17110;52.602;12.998;2023-05-07T03:14:55;16.30;;;14.80;;
30299;SDS011;17110;52.602;12.998;2023-05-07T03:17:21;16.25;;;14.75;;
30299;SDS011;17110;52.602;12.998;2023-05-07T03:19:46;16.83;;;15.43;;
30299;SDS011;17110;52.602;12.998;2023-05-07T03:22:14;15.88;;;14.32;;
30299;SDS011;17110;52.602;12.998;2023-05-07T03:24:39;15.52;;;14.23;;
30299;SDS011;17110;52.602;12.998;2023-05-07T03:27:06;16.88;;;15.35;;
30299;SDS011;17110;52.602;12.998;2023-05-07T03:29:32;15.85;;;14.55;;
30299;SDS011;17110;52.602;12.998;2023-05-07T03:31:57;15.63;;;14.02;;
30299;SDS011;17110;52.602;12.998;2023-05-07T03:34:23;14.43;;;13.02;;
30299;SDS011;17110;52.602;12.998;2023-05-07T03:36:49;15.82;;;14.43;;
30299;SDS011;17110;52.602;12.998;2023-05-07T03:39:16;14.82;;;13.52;;
30299;SDS011;17110;52.602;12.998;2023-05-07T03:41:42;16.55;;;14.98;;
30299;SDS011;17110;52.602;12.998;2023-05-07T03:44:08;15.85;;;14.32;;
30299;SDS011;17110;52.602;12.998;2023-05-07T03:46:34;15.25;;;14.05;;
30299;SDS011;17110;52.602;12.998;2023-05-07T03:48:59;14.27;;;13.07;;
30299;SDS011;17110;52.602;12.998;2023-05-07T03:51:26;14.68;;;13.18;;
30299;SDS011;17110;52.602;12.998;2023-05-07T03:53:52;14.88;;;13.52;;
30299;SDS011;17110;52.602;12.998;2023-05-07T03:56:19;14.00;;;12.80;;
30299;SDS011;17110;52.602;12.998;2023-05-07T03:58:46;13.40;;;12.18;;
30299;SDS011;17110;52.602;12.998;2023-05-07T04:01:12;13.60;;;12.30;;
30299;SDS011;17110;52.602;12.998;2023-05-07T04:03:38;13.20;;;11.98;;
30299;SDS011;17110;52.602;12.998;2023-05-07T04:06:04;13.23;;;12.02;;
30299;SDS011;17110;52.602;12.998;2023-05-07T04:08:33;13.38;;;12.18;;
30299;SDS011;17110;52.602;12.998;2023-05-07T04:10:58;12.95;;;11.85;;
30299;SDS011;17110;52.602;12.998;2023-05-07T04:13:30;12.77;;;11.67;;
30299;SDS011;17110;52.602;12.998;2023-05-07T04:15:57;12.52;;;11.43;;
30299;SDS011;17110;52.602;12.998;2023-05-07T04:18:23;12.80;;;11.70;;
30299;SDS011;17110;52.602;12.998;2023-05-07T04:20:50;13.15;;;12.15;;
30299;SDS011;17110;52.602;12.998;2023-05-07T04:23:15;13.23;;;12.02;;
30299;SDS011;17110;52.602;12.998;2023-05-07T04:25:42;12.85;;;11.65;;
30299;SDS011;17110;52.602;12.998;2023-05-07T04:28:19;12.98;;;11.85;;
30299;SDS011;17110;52.602;12.998;2023-05-07T04:30:46;11.85;;;10.93;;
30299;SDS011;17110;52.602;12.998;2023-05-07T04:33:13;11.70;;;10.60;;
30299;SDS011;17110;52.602;12.998;2023-05-07T04:35:41;12.07;;;10.98;;
30299;SDS011;17110;52.602;12.998;2023-05-07T04:38:07;11.73;;;10.63;;
30299;SDS011;17110;52.602;12.998;2023-05-07T04:40:33;11.32;;;10.32;;
30299;SDS011;17110;52.602;12.998;2023-05-07T04:43:01;10.73;;;9.73;;
30299;SDS011;17110;52.602;12.998;2023-05-07T04:45:30;11.27;;;10.18;;
30299;SDS011;17110;52.602;12.998;2023-05-07T04:47:57;10.77;;;9.77;;
30299;SDS011;17110;52.602;12.998;2023-05-07T04:50:22;10.98;;;9.90;;
30299;SDS011;17110;52.602;12.998;2023-05-07T04:52:49;10.90;;;10.00;;
30299;SDS011;17110;52.602;12.998;2023-05-07T04:55:14;10.82;;;9.82;;
30299;SDS011;17110;52.602;12.998;2023-05-07T04:57:41;11.70;;;10.15;;
30299;SDS011;17110;52.602;12.998;2023-05-07T05:00:08;11.85;;;10.45;;
30299;SDS011;17110;52.602;12.998;2023-05-07T05:02:35;9.75;;;8.85;;
30299;SDS011;17110;52.602;12.998;2023-05-07T05:05:03;10.73;;;9.77;;
30299;SDS011;17110;52.602;12.998;2023-05-07T05:07:29;9.85;;;8.98;;
30299;SDS011;17110;52.602;12.998;2023-05-07T05:09:54;9.93;;;9.02;;
30299;SDS011;17110;52.602;12.998;2023-05-07T05:12:21;11.80;;;9.57;;
30299;SDS011;17110;52.602;12.998;2023-05-07T05:14:46;9.45;;;8.65;;
30299;SDS011;17110;52.602;12.998;2023-05-07T05:17:13;9.27;;;8.57;;
30299;SDS011;17110;52.602;12.998;2023-05-07T05:19:38;9.70;;;8.73;;
30299;SDS011;17110;52.602;12.998;2023-05-07T05:22:05;9.45;;;8.50;;
30299;SDS011;17110;52.602;12.998;2023-05-07T05:24:31;9.20;;;8.27;;
30299;SDS011;17110;52.602;12.998;2023-05-07T05:26:57;9.25;;;8.35;;
30299;SDS011;17110;52.602;12.998;2023-05-07T05:29:24;9.63;;;8.57;;
30299;SDS011;17110;52.602;12.998;2023-05-07T05:31:49;9.43;;;8.52;;
30299;SDS011;17110;52.602;12.998;2023-05-07T05:34:15;9.63;;;8.65;;
30299;SDS011;17110;52.602;12.998;2023-05-07T05:36:41;9.30;;;8.50;;
30299;SDS011;17110;52.602;12.998;2023-05-07T05:39:09;8.10;;;7.38;;
30299;SDS011;17110;52.602;12.998;2023-05-07T05:41:35;8.95;;;8.05;;
30299;SDS011;17110;52.602;12.998;2023-05-07T05:44:02;8.05;;;7.28;;
30299;SDS011;17110;52.602;12.998;2023-05-07T05:46:27;7.65;;;6.95;;
30299;SDS011;17110;52.602;12.998;2023-05-07T05:48:53;7.68;;;6.97;;
30299;SDS011;17110;52.602;12.998;2023-05-07T05:51:21;8.23;;;7.45;;
30299;SDS011;17110;52.602;12.998;2023-05-07T05:53:48;7.75;;;7.05;;
30299;SDS011;17110;52.602;12.998;2023-05-07T05:56:15;7.40;;;6.70;;
30299;SDS011;17110;52.602;12.998;2023-05-07T05:58:41;7.53;;;6.80;;
30299;SDS011;17110;52.602;12.998;2023-05-07T06:01:07;7.70;;;6.60;;
30299;SDS011;17110;52.602;12.998;2023-05-07T06:03:35;7.18;;;6.57;;
30299;SDS011;17110;52.602;12.998;2023-05-07T06:06:05;6.80;;;6.18;;
30299;SDS011;17110;52.602;12.998;2023-05-07T06:08:31;6.63;;;5.97;;
30299;SDS011;17110;52.602;12.998;2023-05-07T06:10:57;5.68;;;5.03;;
30299;SDS011;17110;52.602;12.998;2023-05-07T06:13:25;5.80;;;5.30;;
30299;SDS011;17110;52.602;12.998;2023-05-07T06:15:51;7.72;;;5.60;;
30299;SDS011;17110;52.602;12.998;2023-05-07T06:18:17;5.70;;;5.20;;
30299;SDS011;17110;52.602;12.998;2023-05-07T06:20:42;6.03;;;5.53;;
30299;SDS011;17110;52.602;12.998;2023-05-07T06:23:15;6.05;;;5.28;;
30299;SDS011;17110;52.602;12.998;2023-05-07T06:25:41;5.85;;;4.88;;
30299;SDS011;17110;52.602;12.998;2023-05-07T06:28:07;6.72;;;5.28;;
30299;SDS011;17110;52.602;12.998;2023-05-07T06:30:36;5.18;;;4.68;;
30299;SDS011;17110;52.602;12.998;2023-05-07T06:33:02;6.35;;;5.78;;
30299;SDS011;17110;52.602;12.998;2023-05-07T06:35:27;6.35;;;5.75;;
30299;SDS011;17110;52.602;12.998;2023-05-07T06:37:53;5.78;;;5.20;;
30299;SDS011;17110;52.602;12.998;2023-05-07T06:40:22;6.30;;;5.57;;
30299;SDS011;17110;52.602;12.998;2023-05-07T06:42:48;6.25;;;5.50;;
30299;SDS011;17110;52.602;12.998;2023-05-07T06:45:35;5.90;;;5.40;;
30299;SDS011;17110;52.602;12.998;2023-05-07T06:48:01;6.00;;;5.50;;
30299;SDS011;17110;52.602;12.998;2023-05-07T06:50:31;6.72;;;5.72;;
30299;SDS011;17110;52.602;12.998;2023-05-07T06:52:57;6.72;;;6.07;;
30299;SDS011;17110;52.602;12.998;2023-05-07T06:55:23;6.68;;;6.00;;
30299;SDS011;17110;52.602;12.998;2023-05-07T06:57:49;7.28;;;6.35;;
30299;SDS011;17110;52.602;12.998;2023-05-07T07:00:16;6.25;;;5.65;;
30299;SDS011;17110;52.602;12.998;2023-05-07T07:02:49;6.28;;;5.78;;
30299;SDS011;17110;52.602;12.998;2023-05-07T07:05:18;6.72;;;5.57;;
30299;SDS011;17110;52.602;12.998;2023-05-07T07:07:43;6.55;;;5.40;;
30299;SDS011;17110;52.602;12.998;2023-05-07T07:10:09;7.47;;;5.70;;
30299;SDS011;17110;52.602;12.998;2023-05-07T07:12:35;7.30;;;5.80;;
30299;SDS011;17110;52.602;12.998;2023-05-07T07:15:01;6.35;;;5.72;;
30299;SDS011;17110;52.602;12.998;2023-05-07T07:17:28;6.68;;;5.97;;
30299;SDS011;17110;52.602;12.998;2023-05-07T07:19:55;6.10;;;5.60;;
30299;SDS011;17110;52.602;12.998;2023-05-07T07:22:22;6.13;;;5.63;;
30299;SDS011;17110;52.602;12.998;2023-05-07T07:24:48;6.07;;;5.15;;
30299;SDS011;17110;52.602;12.998;2023-05-07T07:27:15;5.55;;;5.15;;
30299;SDS011;17110;52.602;12.998;2023-05-07T07:29:41;8.02;;;5.53;;
30299;SDS011;17110;52.602;12.998;2023-05-07T07:32:07;6.25;;;5.50;;
30299;SDS011;17110;52.602;12.998;2023-05-07T07:34:33;6.68;;;5.95;;
30299;SDS011;17110;52.602;12.998;2023-05-07T07:37:02;6.45;;;5.32;;
30299;SDS011;17110;52.602;12.998;2023-05-07T07:39:27;7.22;;;6.00;;
30299;SDS011;17110;52.602;12.998;2023-05-07T07:41:55;5.70;;;5.20;;
30299;SDS011;17110;52.602;12.998;2023-05-07T07:44:21;6.22;;;5.63;;
30299;SDS011;17110;52.602;12.998;2023-05-07T07:46:51;5.78;;;5.18;;
30299;SDS011;17110;52.602;12.998;2023-05-07T07:49:18;5.88;;;5.38;;
30299;SDS011;17110;52.602;12.998;2023-05-07T07:51:44;6.75;;;5.63;;
30299;SDS011;17110;52.602;12.998;2023-05-07T07:54:13;5.43;;;4.93;;
30299;SDS011;17110;52.602;12.998;2023-05-07T07:56:40;6.78;;;4.43;;
30299;SDS011;17110;52.602;12.998;2023-05-07T07:59:07;5.65;;;4.60;;
30299;SDS011;17110;52.602;12.998;2023-05-07T08:01:36;4.65;;;4.25;;
30299;SDS011;17110;52.602;12.998;2023-05-07T08:04:02;5.53;;;4.20;;
30299;SDS011;17110;52.602;12.998;2023-05-07T08:06:29;4.18;;;3.78;;
30299;SDS011;17110;52.602;12.998;2023-05-07T08:08:55;4.35;;;3.95;;
30299;SDS011;17110;52.602;12.998;2023-05-07T08:11:22;4.68;;;3.47;;
30299;SDS011;17110;52.602;12.998;2023-05-07T08:13:48;4.57;;;3.92;;
30299;SDS011;17110;52.602;12.998;2023-05-07T08:16:14;5.38;;;3.70;;
30299;SDS011;17110;52.602;12.998;2023-05-07T08:18:41;4.07;;;3.70;;
30299;SDS011;17110;52.602;12.998;2023-05-07T08:21:06;3.65;;;3.35;;
30299;SDS011;17110;52.602;12.998;2023-05-07T08:23:32;4.43;;;3.42;;
30299;SDS011;17110;52.602;12.998;2023-05-07T08:25:58;4.63;;;3.33;;
30299;SDS011;17110;52.602;12.998;2023-05-07T08:28:25;5.10;;;3.60;;
30299;SDS011;17110;52.602;12.998;2023-05-07T08:30:51;3.83;;;3.13;;
30299;SDS011;17110;52.602;12.998;2023-05-07T08:33:18;4.05;;;3.20;;
30299;SDS011;17110;52.602;12.998;2023-05-07T08:35:44;3.88;;;3.47;;
30299;SDS011;17110;52.602;12.998;2023-05-07T08:38:12;3.97;;;3.58;;
30299;SDS011;17110;52.602;12.998;2023-05-07T08:40:38;4.00;;;3.45;;
30299;SDS011;17110;52.602;12.998;2023-05-07T08:43:08;4.03;;;3.55;;
30299;SDS011;17110;52.602;12.998;2023-05-07T08:45:39;3.17;;;2.88;;
30299;SDS011;17110;52.602;12.998;2023-05-07T08:48:08;2.85;;;2.60;;
30299;SDS011;17110;52.602;12.998;2023-05-07T08:50:39;3.55;;;3.25;;
30299;SDS011;17110;52.602;12.998;2023-05-07T08:53:05;3.88;;;3.22;;
30299;SDS011;17110;52.602;12.998;2023-05-07T08:55:31;3.38;;;3.08;;
30299;SDS011;17110;52.602;12.998;2023-05-07T08:57:57;3.35;;;3.05;;
30299;SDS011;17110;52.602;12.998;2023-05-07T09:00:23;3.58;;;3.05;;
30299;SDS011;17110;52.602;12.998;2023-05-07T09:02:52;3.75;;;3.00;;
30299;SDS011;17110;52.602;12.998;2023-05-07T09:05:18;5.35;;;3.20;;
30299;SDS011;17110;52.602;12.998;2023-05-07T09:07:44;6.57;;;2.72;;
30299;SDS011;17110;52.602;12.998;2023-05-07T09:10:12;2.85;;;2.65;;
30299;SDS011;17110;52.602;12.998;2023-05-07T09:12:39;2.92;;;2.50;;
30299;SDS011;17110;52.602;12.998;2023-05-07T09:15:07;2.85;;;2.55;;
30299;SDS011;17110;52.602;12.998;2023-05-07T09:17:34;5.07;;;2.60;;
30299;SDS011;17110;52.602;12.998;2023-05-07T09:20:03;4.90;;;2.70;;
30299;SDS011;17110;52.602;12.998;2023-05-07T09:22:31;4.20;;;2.95;;
30299;SDS011;17110;52.602;12.998;2023-05-07T09:25:00;3.53;;;2.85;;
30299;SDS011;17110;52.602;12.998;2023-05-07T09:27:27;2.65;;;2.42;;
30299;SDS011;17110;52.602;12.998;2023-05-07T09:29:54;4.35;;;2.97;;
30299;SDS011;17110;52.602;12.998;2023-05-07T09:32:20;6.32;;;2.72;;
30299;SDS011;17110;52.602;12.998;2023-05-07T09:34:46;3.95;;;2.70;;
30299;SDS011;17110;52.602;12.998;2023-05-07T09:37:14;5.07;;;2.88;;
30299;SDS011;17110;52.602;12.998;2023-05-07T09:39:40;4.65;;;2.85;;
30299;SDS011;17110;52.602;12.998;2023-05-07T09:42:07;3.03;;;2.75;;
30299;SDS011;17110;52.602;12.998;2023-05-07T09:44:35;3.20;;;2.90;;
30299;SDS011;17110;52.602;12.998;2023-05-07T09:47:02;3.58;;;2.95;;
30299;SDS011;17110;52.602;12.998;2023-05-07T09:49:36;2.97;;;2.78;;
30299;SDS011;17110;52.602;12.998;2023-05-07T09:52:07;2.95;;;2.60;;
30299;SDS011;17110;52.602;12.998;2023-05-07T09:54:37;3.03;;;2.50;;
30299;SDS011;17110;52.602;12.998;2023-05-07T09:57:06;3.38;;;2.90;;
30299;SDS011;17110;52.602;12.998;2023-05-07T09:59:34;4.90;;;2.60;;
30299;SDS011;17110;52.602;12.998;2023-05-07T10:02:05;5.72;;;3.30;;
30299;SDS011;17110;52.602;12.998;2023-05-07T10:04:35;2.83;;;2.63;;
30299;SDS011;17110;52.602;12.998;2023-05-07T10:07:02;5.40;;;2.50;;
30299;SDS011;17110;52.602;12.998;2023-05-07T10:09:29;4.70;;;2.83;;
30299;SDS011;17110;52.602;12.998;2023-05-07T10:11:57;4.13;;;2.67;;
30299;SDS011;17110;52.602;12.998;2023-05-07T10:14:24;4.03;;;3.05;;
30299;SDS011;17110;52.602;12.998;2023-05-07T10:16:53;5.10;;;3.38;;
30299;SDS011;17110;52.602;12.998;2023-05-07T10:19:19;5.68;;;2.80;;
30299;SDS011;17110;52.602;12.998;2023-05-07T10:21:51;5.00;;;3.13;;
30299;SDS011;17110;52.602;12.998;2023-05-07T10:24:21;4.20;;;3.10;;
30299;SDS011;17110;52.602;12.998;2023-05-07T10:26:51;6.88;;;3.17;;
30299;SDS011;17110;52.602;12.998;2023-05-07T10:29:33;3.30;;;2.80;;
30299;SDS011;17110;52.602;12.998;2023-05-07T10:32:14;4.90;;;3.10;;
30299;SDS011;17110;52.602;12.998;2023-05-07T10:34:56;3.58;;;2.80;;
30299;SDS011;17110;52.602;12.998;2023-05-07T10:37:26;3.80;;;3.30;;
30299;SDS011;17110;52.602;12.998;2023-05-07T10:39:54;4.20;;;3.33;;
30299;SDS011;17110;52.602;12.998;2023-05-07T10:42:20;4.00;;;3.60;;
30299;SDS011;17110;52.602;12.998;2023-05-07T10:44:52;3.17;;;2.88;;
30299;SDS011;17110;52.602;12.998;2023-05-07T10:47:23;3.20;;;2.90;;
30299;SDS011;17110;52.602;12.998;2023-05-07T11:02:24;4.85;;;2.90;;
30299;SDS011;17110;52.602;12.998;2023-05-07T11:05:43;3.10;;;2.78;;
30299;SDS011;17110;52.602;12.998;2023-05-07T11:08:23;3.88;;;2.42;;
30299;SDS011;17110;52.602;12.998;2023-05-07T11:10:55;3.10;;;2.53;;
30299;SDS011;17110;52.602;12.998;2023-05-07T11:16:20;3.80;;;2.63;;
30299;SDS011;17110;52.602;12.998;2023-05-07T11:18:51;4.90;;;3.20;;
30299;SDS011;17110;52.602;12.998;2023-05-07T11:21:34;3.00;;;2.30;;
30299;SDS011;17110;52.602;12.998;2023-05-07T11:24:13;2.63;;;2.40;;
30299;SDS011;17110;52.602;12.998;2023-05-07T11:26:58;2.90;;;2.53;;
30299;SDS011;17110;52.602;12.998;2023-05-07T11:29:26;2.55;;;2.30;;
30299;SDS011;17110;52.602;12.998;2023-05-07T11:31:57;2.97;;;2.25;;
30299;SDS011;17110;52.602;12.998;2023-05-07T11:34:27;2.40;;;2.20;;
30299;SDS011;17110;52.602;12.998;2023-05-07T11:36:57;3.60;;;2.33;;
30299;SDS011;17110;52.602;12.998;2023-05-07T11:39:36;3.25;;;2.10;;
30299;SDS011;17110;52.602;12.998;2023-05-07T11:42:02;2.20;;;2.00;;
30299;SDS011;17110;52.602;12.998;2023-05-07T11:44:40;2.10;;;1.90;;
30299;SDS011;17110;52.602;12.998;2023-05-07T11:47:09;3.35;;;2.15;;
30299;SDS011;17110;52.602;12.998;2023-05-07T11:49:35;2.28;;;2.00;;
30299;SDS011;17110;52.602;12.998;2023-05-07T11:52:02;2.00;;;1.80;;
30299;SDS011;17110;52.602;12.998;2023-05-07T11:54:34;3.75;;;2.00;;
30299;SDS011;17110;52.602;12.998;2023-05-07T11:57:00;2.88;;;2.00;;
30299;SDS011;17110;52.602;12.998;2023-05-07T11:59:26;3.15;;;2.10;;
30299;SDS011;17110;52.602;12.998;2023-05-07T12:01:51;2.50;;;2.30;;
30299;SDS011;17110;52.602;12.998;2023-05-07T12:04:20;2.95;;;2.28;;
30299;SDS011;17110;52.602;12.998;2023-05-07T12:06:45;3.60;;;2.20;;
30299;SDS011;17110;52.602;12.998;2023-05-07T12:09:12;2.20;;;2.00;;
30299;SDS011;17110;52.602;12.998;2023-05-07T12:11:38;2.70;;;1.90;;
30299;SDS011;17110;52.602;12.998;2023-05-07T12:14:04;2.28;;;2.00;;
30299;SDS011;17110;52.602;12.998;2023-05-07T12:16:35;2.10;;;1.90;;
30299;SDS011;17110;52.602;12.998;2023-05-07T12:19:01;2.30;;;2.03;;
30299;SDS011;17110;52.602;12.998;2023-05-07T12:21:27;2.38;;;1.75;;
30299;SDS011;17110;52.602;12.998;2023-05-07T12:23:54;2.25;;;2.00;;
30299;SDS011;17110;52.602;12.998;2023-05-07T12:26:21;3.60;;;2.35;;
30299;SDS011;17110;52.602;12.998;2023-05-07T12:28:48;2.50;;;2.00;;
30299;SDS011;17110;52.602;12.998;2023-05-07T12:31:13;4.70;;;2.10;;
30299;SDS011;17110;52.602;12.998;2023-05-07T12:33:39;2.10;;;1.90;;
30299;SDS011;17110;52.602;12.998;2023-05-07T12:36:05;3.05;;;2.13;;
30299;SDS011;17110;52.602;12.998;2023-05-07T12:38:36;2.22;;;2.03;;
30299;SDS011;17110;52.602;12.998;2023-05-07T12:41:02;3.80;;;2.45;;
30299;SDS011;17110;52.602;12.998;2023-05-07T12:43:30;2.90;;;2.45;;
30299;SDS011;17110;52.602;12.998;2023-05-07T12:45:56;2.35;;;2.15;;
30299;SDS011;17110;52.602;12.998;2023-05-07T12:48:24;2.35;;;1.75;;
30299;SDS011;17110;52.602;12.998;2023-05-07T12:50:50;3.20;;;1.83;;
30299;SDS011;17110;52.602;12.998;2023-05-07T12:53:16;3.67;;;2.28;;
30299;SDS011;17110;52.602;12.998;2023-05-07T12:55:45;2.10;;;1.77;;
30299;SDS011;17110;52.602;12.998;2023-05-07T12:58:16;2.28;;;1.85;;
30299;SDS011;17110;52.602;12.998;2023-05-07T13:00:48;4.25;;;2.10;;
30299;SDS011;17110;52.602;12.998;2023-05-07T13:03:22;2.38;;;1.90;;
30299;SDS011;17110;52.602;12.998;2023-05-07T13:05:49;2.15;;;2.00;;
30299;SDS011;17110;52.602;12.998;2023-05-07T13:08:23;3.28;;;2.13;;
30299;SDS011;17110;52.602;12.998;2023-05-07T13:10:52;2.58;;;2.00;;
30299;SDS011;17110;52.602;12.998;2023-05-07T13:13:18;2.45;;;2.25;;
30299;SDS011;17110;52.602;12.998;2023-05-07T13:15:51;3.85;;;2.33;;
30299;SDS011;17110;52.602;12.998;2023-05-07T13:18:17;2.28;;;2.08;;
30299;SDS011;17110;52.602;12.998;2023-05-07T13:20:42;6.00;;;2.42;;
30299;SDS011;17110;52.602;12.998;2023-05-07T13:23:08;5.70;;;2.05;;
30299;SDS011;17110;52.602;12.998;2023-05-07T13:25:34;2.42;;;2.20;;
30299;SDS011;17110;52.602;12.998;2023-05-07T13:28:03;2.10;;;1.90;;
30299;SDS011;17110;52.602;12.998;2023-05-07T13:30:29;3.38;;;2.30;;
30299;SDS011;17110;52.602;12.998;2023-05-07T13:32:58;3.85;;;2.08;;
30299;SDS011;17110;52.602;12.998;2023-05-07T13:35:37;2.55;;;2.03;;
30299;SDS011;17110;52.602;12.998;2023-05-07T13:38:03;2.40;;;1.63;;
30299;SDS011;17110;52.602;12.998;2023-05-07T13:40:28;2.72;;;1.92;;
30299;SDS011;17110;52.602;12.998;2023-05-07T13:42:56;2.72;;;2.30;;
30299;SDS011;17110;52.602;12.998;2023-05-07T13:45:22;2.45;;;2.00;;
30299;SDS011;17110;52.602;12.998;2023-05-07T13:47:47;2.83;;;2.45;;
30299;SDS011;17110;52.602;12.998;2023-05-07T13:50:14;2.25;;;1.90;;
30299;SDS011;17110;52.602;12.998;2023-05-07T13:52:43;2.85;;;2.13;;
30299;SDS011;17110;52.602;12.998;2023-05-07T13:55:09;2.50;;;2.05;;
30299;SDS011;17110;52.602;12.998;2023-05-07T13:57:35;4.03;;;2.20;;
30299;SDS011;17110;52.602;12.998;2023-05-07T14:00:01;6.25;;;2.33;;
30299;SDS011;17110;52.602;12.998;2023-05-07T14:02:29;2.53;;;2.17;;
30299;SDS011;17110;52.602;12.998;2023-05-07T14:04:54;2.88;;;2.03;;
30299;SDS011;17110;52.602;12.998;2023-05-07T14:07:21;2.08;;;1.60;;
30299;SDS011;17110;52.602;12.998;2023-05-07T14:09:47;2.50;;;1.90;;
30299;SDS011;17110;52.602;12.998;2023-05-07T14:12:13;2.10;;;1.90;;
30299;SDS011;17110;52.602;12.998;2023-05-07T14:14:38;3.63;;;1.92;;
30299;SDS011;17110;52.602;12.998;2023-05-07T14:17:04;2.60;;;1.60;;
30299;SDS011;17110;52.602;12.998;2023-05-07T14:19:30;2.10;;;1.70;;
30299;SDS011;17110;52.602;12.998;2023-05-07T14:21:55;2.33;;;1.60;;
30299;SDS011;17110;52.602;12.998;2023-05-07T14:24:23;1.90;;;1.73;;
30299;SDS011;17110;52.602;12.998;2023-05-07T14:26:49;1.75;;;1.60;;
30299;SDS011;17110;52.602;12.998;2023-05-07T14:29:15;2.22;;;1.60;;
30299;SDS011;17110;52.602;12.998;2023-05-07T14:31:40;3.50;;;1.92;;
30299;SDS011;17110;52.602;12.998;2023-05-07T14:34:06;2.92;;;2.25;;
30299;SDS011;17110;52.602;12.998;2023-05-07T14:36:32;2.00;;;1.60;;
30299;SDS011;17110;52.602;12.998;2023-05-07T14:38:57;3.20;;;1.80;;
30299;SDS011;17110;52.602;12.998;2023-05-07T14:41:25;2.53;;;1.77;;
30299;SDS011;17110;52.602;12.998;2023-05-07T14:43:50;2.10;;;1.90;;